Time;durP1;ratioP1;P1;durP2;ratioP2;P2;SDS_P1;SDS_P2;PMS_P1;PMS_P2;Temp;Humidity;BMP_temperature;BMP_pressure;BME280_temperature;BME280_humidity;BME280_pressure;Samples;Min_cycle;Max_cycle;Signal;HPM_P1;HPM_P2
2023/08/04 00:01:18;;;;;;;2.17;1.00;;;;;;;14.89;100.00;99616.56;5061533;28;20270;-57
2023/08/04 00:03:49;;;;;;;0.87;0.80;;;;;;;14.98;100.00;99616.16;5072112;28;20414;-56
2023/08/04 00:06:19;;;;;;;2.67;0.90;;;;;;;15.01;100.00;99615.16;5074099;28;20364;-56
2023/08/04 00:08:52;;;;;;;2.10;0.97;;;;;;;15.00;100.00;99614.31;5065963;28;20390;-52
2023/08/04 00:11:22;;;;;;;1.30;0.77;;;;;;;15.08;100.00;99627.13;5072630;28;20301;-55
2023/08/04 00:13:53;;;;;;;1.07;0.87;;;;;;;15.08;100.00;99622.72;5063179;28;20394;-56
2023/08/04 00:16:23;;;;;;;1.70;1.03;;;;;;;15.15;100.00;99618.03;5073804;28;20328;-56
2023/08/04 00:18:53;;;;;;;2.00;0.90;;;;;;;15.13;100.00;99614.63;5061863;28;20659;-57
2023/08/04 00:21:24;;;;;;;1.90;0.73;;;;;;;15.03;100.00;99606.28;5071832;28;20317;-56
2023/08/04 00:24:00;;;;;;;2.83;0.90;;;;;;;14.96;100.00;99611.91;5061314;28;20731;-54
2023/08/04 00:26:32;;;;;;;1.23;0.80;;;;;;;14.88;100.00;99604.34;5071243;28;20266;-56
2023/08/04 00:29:02;;;;;;;2.00;0.70;;;;;;;14.93;100.00;99607.63;5064623;28;20281;-57
2023/08/04 00:31:33;;;;;;;1.50;0.87;;;;;;;14.91;100.00;99604.19;5072901;28;20286;-55
2023/08/04 00:34:04;;;;;;;1.43;0.70;;;;;;;14.92;100.00;99600.63;5061161;28;20278;-55
2023/08/04 00:36:34;;;;;;;1.23;0.80;;;;;;;15.07;100.00;99621.00;5071790;28;20293;-57
2023/08/04 00:39:06;;;;;;;1.80;0.50;;;;;;;15.22;100.00;99613.31;5060760;28;20297;-54
2023/08/04 00:41:37;;;;;;;0.83;0.60;;;;;;;15.18;100.00;99611.78;5071127;28;20340;-56
2023/08/04 00:44:08;;;;;;;0.50;0.50;;;;;;;15.34;100.00;99630.34;5063274;28;20759;-55
2023/08/04 00:46:39;;;;;;;1.80;0.80;;;;;;;15.37;100.00;99640.72;5073891;28;20310;-53
2023/08/04 00:49:10;;;;;;;2.03;0.80;;;;;;;15.28;100.00;99648.13;5061597;28;20757;-54
2023/08/04 00:51:42;;;;;;;2.30;0.97;;;;;;;15.27;100.00;99653.44;5067792;28;20737;-54
2023/08/04 00:54:14;;;;;;;1.17;0.80;;;;;;;15.22;100.00;99668.59;5062837;28;20286;-55
2023/08/04 00:56:44;;;;;;;1.33;0.90;;;;;;;15.16;100.00;99661.00;5074943;28;20376;-55
2023/08/04 00:59:15;;;;;;;1.17;0.90;;;;;;;15.13;100.00;99651.47;5064483;28;20293;-55
2023/08/04 01:01:45;;;;;;;1.83;1.20;;;;;;;15.15;100.00;99669.78;5077708;28;20282;-56
2023/08/04 01:04:17;;;;;;;4.37;1.57;;;;;;;15.14;100.00;99689.16;5064383;28;20788;-57
2023/08/04 01:07:00;;;;;;;2.47;1.10;;;;;;;15.14;100.00;99691.78;5074015;28;20305;-57
2023/08/04 01:09:41;;;;;;;3.13;1.33;;;;;;;15.04;100.00;99679.03;5073210;28;20750;-57
2023/08/04 01:12:17;;;;;;;2.27;1.20;;;;;;;14.96;100.00;99659.25;5074898;28;20342;-57
2023/08/04 01:14:51;;;;;;;2.30;1.30;;;;;;;14.90;100.00;99655.09;5085436;28;20285;-57
2023/08/04 01:17:25;;;;;;;3.67;1.40;;;;;;;14.76;100.00;99660.97;5074920;28;20380;-58
2023/08/04 01:19:57;;;;;;;3.27;1.80;;;;;;;14.63;100.00;99671.16;5013209;28;1772191;-56
2023/08/04 01:22:29;;;;;;;3.77;2.20;;;;;;;14.61;100.00;99669.50;5087379;28;20469;-58
2023/08/04 01:25:00;;;;;;;3.03;2.20;;;;;;;14.61;100.00;99665.09;5076073;28;20376;-55
2023/08/04 01:27:36;;;;;;;5.67;2.67;;;;;;;14.58;100.00;99673.13;5086577;28;20407;-56
2023/08/04 01:30:12;;;;;;;4.07;2.70;;;;;;;14.58;100.00;99670.50;5076305;28;20285;-57
2023/08/04 01:32:42;;;;;;;7.37;1.90;;;;;;;14.62;100.00;99660.69;5086863;28;20633;-56
2023/08/04 01:35:14;;;;;;;3.03;1.83;;;;;;;14.73;100.00;99678.66;5076083;28;20346;-57
2023/08/04 01:37:46;;;;;;;4.03;2.27;;;;;;;14.83;100.00;99672.09;5087120;28;20284;-55
2023/08/04 01:40:17;;;;;;;2.47;1.30;;;;;;;14.89;100.00;99674.44;5075984;28;20277;-57
2023/08/04 01:42:47;;;;;;;3.07;1.37;;;;;;;14.91;100.00;99677.00;5086440;28;20286;-57
2023/08/04 01:45:18;;;;;;;3.60;1.40;;;;;;;14.93;100.00;99691.81;5076265;28;20350;-57
2023/08/04 01:47:50;;;;;;;1.47;1.20;;;;;;;15.03;100.00;99684.38;5083734;28;21054;-56
2023/08/04 01:50:21;;;;;;;1.00;0.80;;;;;;;15.14;100.00;99697.03;5086710;28;20296;-55
2023/08/04 01:52:54;;;;;;;1.43;0.93;;;;;;;15.19;100.00;99681.91;5077110;28;20596;-56
2023/08/04 01:55:25;;;;;;;0.97;0.67;;;;;;;15.29;100.00;99685.81;5086404;28;20372;-55
2023/08/04 01:57:56;;;;;;;0.90;0.70;;;;;;;15.26;100.00;99683.34;5056753;28;20448;-56
2023/08/04 02:00:26;;;;;;;1.37;0.70;;;;;;;15.27;100.00;99669.25;5066852;28;20347;-58
2023/08/04 02:02:57;;;;;;;0.97;0.83;;;;;;;15.31;100.00;99670.81;5056437;28;20270;-56
2023/08/04 02:05:28;;;;;;;1.10;0.50;;;;;;;15.38;100.00;99667.00;5070814;28;20277;-54
2023/08/04 02:08:00;;;;;;;0.70;0.57;;;;;;;15.47;100.00;99661.28;5076067;28;20285;-54
2023/08/04 02:10:32;;;;;;;0.67;0.60;;;;;;;15.51;100.00;99668.13;5086354;28;20289;-57
2023/08/04 02:13:02;;;;;;;0.90;0.70;;;;;;;15.52;100.00;99675.13;5075558;28;20308;-58
2023/08/04 02:15:33;;;;;;;1.23;0.70;;;;;;;15.59;100.00;99680.09;5085605;28;20320;-57
2023/08/04 02:18:03;;;;;;;0.93;0.70;;;;;;;15.52;100.00;99685.66;5075269;28;20281;-56
2023/08/04 02:20:34;;;;;;;1.20;0.80;;;;;;;15.44;100.00;99698.28;5085767;28;20289;-58
2023/08/04 02:23:06;;;;;;;1.50;0.80;;;;;;;15.33;100.00;99700.56;5075456;28;20313;-56
2023/08/04 02:25:38;;;;;;;0.70;0.70;;;;;;;15.27;100.00;99690.31;5085740;28;20663;-56
2023/08/04 02:28:08;;;;;;;1.03;0.70;;;;;;;15.20;100.00;99705.53;5075310;28;20800;-56
2023/08/04 02:30:39;;;;;;;1.07;0.80;;;;;;;15.09;100.00;99713.03;5085712;28;20297;-57
2023/08/04 02:33:09;;;;;;;0.90;0.80;;;;;;;14.97;100.00;99709.16;5074885;28;20278;-56
2023/08/04 02:35:40;;;;;;;1.97;0.97;;;;;;;14.91;100.00;99725.19;5085506;28;20368;-57
2023/08/04 02:38:13;;;;;;;2.50;1.00;;;;;;;14.85;100.00;99733.34;5074393;28;20338;-57
2023/08/04 02:40:43;;;;;;;2.20;1.10;;;;;;;14.88;100.00;99730.59;5085719;28;20357;-57
2023/08/04 02:43:14;;;;;;;1.10;0.90;;;;;;;14.87;100.00;99739.41;5074585;28;20285;-57
2023/08/04 02:45:49;;;;;;;1.53;1.00;;;;;;;14.86;100.00;99748.22;5084553;28;20281;-58
2023/08/04 02:48:20;;;;;;;1.60;1.00;;;;;;;14.83;100.00;99758.88;5064855;28;20662;-57
2023/08/04 02:51:01;;;;;;;2.43;1.00;;;;;;;14.81;100.00;99760.72;5063807;28;20437;-55
2023/08/04 02:53:34;;;;;;;2.33;1.20;;;;;;;14.90;100.00;99773.47;5080263;28;20326;-56
2023/08/04 02:56:10;;;;;;;1.70;1.10;;;;;;;14.89;100.00;99774.38;5066649;28;20301;-58
2023/08/04 02:58:43;;;;;;;2.90;1.20;;;;;;;15.00;100.00;99780.06;5079019;28;21519;-55
2023/08/04 03:01:14;;;;;;;2.33;1.20;;;;;;;14.96;100.00;99791.63;5065491;28;20269;-55
2023/08/04 03:03:44;;;;;;;2.60;1.30;;;;;;;14.78;100.00;99750.31;5073473;28;20278;-56
2023/08/04 03:06:15;;;;;;;1.83;1.30;;;;;;;14.98;100.00;99789.78;5063421;28;20266;-56
2023/08/04 03:08:47;;;;;;;2.90;1.40;;;;;;;15.01;100.00;99789.66;5073576;28;20278;-55
2023/08/04 03:11:17;;;;;;;2.13;1.20;;;;;;;15.07;100.00;99792.03;5076507;28;20360;-56
2023/08/04 03:13:48;;;;;;;2.13;1.03;;;;;;;15.09;100.00;99792.81;5093701;28;20301;-56
2023/08/04 03:16:18;;;;;;;2.90;1.17;;;;;;;15.12;100.00;99801.50;5082661;28;20808;-54
2023/08/04 03:18:49;;;;;;;1.27;1.00;;;;;;;15.13;100.00;99792.72;5082125;28;20265;-55
2023/08/04 03:21:19;;;;;;;2.53;1.20;;;;;;;15.18;100.00;99785.47;5084596;28;20328;-55
2023/08/04 03:23:52;;;;;;;3.63;1.83;;;;;;;15.28;100.00;99781.50;5076853;28;20277;-56
2023/08/04 03:26:22;;;;;;;5.27;1.10;;;;;;;15.42;100.00;99778.25;5084759;28;20274;-57
2023/08/04 03:28:53;;;;;;;1.23;0.87;;;;;;;15.48;100.00;99768.31;5074817;28;20285;-56
2023/08/04 03:31:24;;;;;;;1.60;0.97;;;;;;;15.59;100.00;99759.94;5084306;28;20281;-57
2023/08/04 03:33:54;;;;;;;7.13;1.10;;;;;;;15.73;100.00;99756.72;5074181;28;20318;-57
2023/08/04 03:36:25;;;;;;;3.00;1.77;;;;;;;15.86;100.00;99749.97;5084041;28;20279;-56
2023/08/04 03:38:57;;;;;;;3.33;1.60;;;;;;;16.14;100.00;99751.28;5073701;28;20336;-56
2023/08/04 03:41:27;;;;;;;2.63;1.10;;;;;;;16.43;100.00;99762.25;5083941;28;20266;-55
2023/08/04 03:43:58;;;;;;;2.87;1.50;;;;;;;16.66;100.00;99753.19;5074993;28;20305;-57
2023/08/04 03:46:28;;;;;;;4.37;2.23;;;;;;;16.86;100.00;99749.59;5078795;28;20294;-55
2023/08/04 03:48:59;;;;;;;1.73;1.33;;;;;;;17.01;100.00;99748.81;5052989;28;20278;-55
2023/08/04 03:51:29;;;;;;;1.27;1.17;;;;;;;17.16;100.00;99763.84;5063306;28;20362;-55
2023/08/04 03:54:01;;;;;;;1.83;1.00;;;;;;;17.13;100.00;99758.75;5052495;28;20282;-55
2023/08/04 03:56:32;;;;;;;1.57;1.10;;;;;;;17.09;100.00;99757.19;5081761;28;20356;-57
2023/08/04 03:59:02;;;;;;;2.37;1.10;;;;;;;16.97;100.00;99747.25;5073926;28;20755;-54
2023/08/04 04:01:33;;;;;;;2.23;1.23;;;;;;;16.95;100.00;99754.41;5084344;28;20274;-56
2023/08/04 04:04:03;;;;;;;2.50;1.10;;;;;;;17.05;100.00;99753.00;5070654;28;20338;-56
2023/08/04 04:06:34;;;;;;;1.53;0.97;;;;;;;17.19;100.00;99753.13;5077493;28;20301;-57
2023/08/04 04:09:06;;;;;;;1.50;1.10;;;;;;;17.24;98.51;99744.97;5060434;28;20278;-59
2023/08/04 04:11:37;;;;;;;2.40;1.13;;;;;;;17.47;99.05;99762.25;5069285;28;20298;-58
2023/08/04 04:14:07;;;;;;;2.23;1.33;;;;;;;17.74;99.93;99764.38;5059631;28;20309;-58
2023/08/04 04:16:38;;;;;;;1.83;1.50;;;;;;;17.87;97.81;99776.00;5069776;28;20666;-58
2023/08/04 04:19:09;;;;;;;2.20;1.70;;;;;;;17.86;95.00;99779.59;5058305;28;20288;-58
2023/08/04 04:21:40;;;;;;;2.50;1.70;;;;;;;17.79;93.09;99772.91;5068899;28;20285;-58
2023/08/04 04:24:13;;;;;;;2.13;1.63;;;;;;;17.84;93.77;99776.16;5058716;28;20749;-58
2023/08/04 04:26:43;;;;;;;2.70;2.07;;;;;;;17.79;96.19;99775.53;5069868;28;20337;-57
2023/08/04 04:29:14;;;;;;;2.20;2.00;;;;;;;17.71;93.44;99775.09;5059691;28;20330;-58
2023/08/04 04:31:44;;;;;;;3.07;1.67;;;;;;;17.64;93.82;99770.13;5073522;28;20328;-58
2023/08/04 04:34:15;;;;;;;2.93;1.90;;;;;;;17.61;95.01;99772.94;5062081;28;20277;-59
2023/08/04 04:36:46;;;;;;;3.37;2.00;;;;;;;17.69;94.00;99762.81;5073009;28;20378;-59
2023/08/04 04:39:18;;;;;;;2.20;1.70;;;;;;;17.71;88.79;99777.75;5064122;28;20297;-58
2023/08/04 04:41:48;;;;;;;2.77;2.03;;;;;;;17.56;90.81;99780.25;5073295;28;20358;-56
2023/08/04 04:44:19;;;;;;;4.47;3.00;;;;;;;17.47;92.83;99783.38;5063376;28;20327;-59
2023/08/04 04:46:50;;;;;;;6.60;2.60;;;;;;;17.67;95.75;99780.56;5068956;28;20289;-58
2023/08/04 04:49:21;;;;;;;3.77;2.53;;;;;;;17.74;90.69;99790.78;5073084;28;20285;-60
2023/08/04 04:51:51;;;;;;;8.07;3.70;;;;;;;17.72;88.30;99792.66;5063586;28;20273;-58
2023/08/04 04:54:24;;;;;;;4.87;2.47;;;;;;;17.48;86.55;99795.66;5072569;28;20658;-60
2023/08/04 04:56:57;;;;;;;4.00;2.80;;;;;;;17.45;82.91;99801.13;5044153;28;20312;-59
2023/08/04 04:59:28;;;;;;;3.90;2.90;;;;;;;17.31;82.19;99766.66;5073680;28;20289;-60
2023/08/04 05:01:58;;;;;;;4.70;2.80;;;;;;;17.53;83.89;99798.91;5063842;28;20303;-60
2023/08/04 05:04:29;;;;;;;4.97;2.43;;;;;;;17.42;84.66;99796.84;5072636;28;20274;-59
2023/08/04 05:06:59;;;;;;;10.83;6.70;;;;;;;17.53;85.16;99798.91;5061448;28;20298;-58
2023/08/04 05:09:32;;;;;;;6.30;2.80;;;;;;;17.64;87.63;99801.84;5072094;28;20300;-58
2023/08/04 05:12:02;;;;;;;4.10;2.87;;;;;;;17.76;86.49;99799.50;5061577;28;20298;-60
2023/08/04 05:14:33;;;;;;;4.10;3.07;;;;;;;17.77;81.55;99802.06;5071872;28;20335;-59
2023/08/04 05:17:04;;;;;;;5.67;3.10;;;;;;;17.74;83.74;99811.94;5062920;28;20294;-59
2023/08/04 05:19:35;;;;;;;4.53;3.53;;;;;;;17.62;86.90;99802.84;5071698;28;20336;-58
2023/08/04 05:22:06;;;;;;;4.20;2.90;;;;;;;17.50;83.28;99814.94;5061116;28;21065;-60
2023/08/04 05:24:38;;;;;;;4.97;2.90;;;;;;;17.48;83.08;99811.50;5072354;28;20317;-60
2023/08/04 05:27:09;;;;;;;5.93;2.87;;;;;;;17.55;83.75;99818.19;5062934;28;20377;-59
2023/08/04 05:29:39;;;;;;;4.07;2.90;;;;;;;17.48;81.50;99822.09;5078565;28;20372;-62
2023/08/04 05:32:10;;;;;;;6.07;3.50;;;;;;;17.48;84.02;99822.09;5073804;28;20346;-62
2023/08/04 05:34:41;;;;;;;3.47;2.43;;;;;;;17.48;nan;99832.66;5095678;28;20274;-63
2023/08/04 05:37:11;;;;;;;4.23;2.40;;;;;;;17.42;82.90;99833.81;5105990;28;20728;-61
2023/08/04 05:39:43;;;;;;;3.53;2.43;;;;;;;17.54;84.44;99842.88;5116553;28;20293;-62
2023/08/04 05:42:14;;;;;;;4.33;2.60;;;;;;;17.66;81.25;99836.97;5116224;28;20318;-60
2023/08/04 05:44:44;;;;;;;3.93;2.87;;;;;;;17.72;77.12;99846.34;5092412;28;20322;-59
2023/08/04 05:47:15;;;;;;;3.77;2.27;;;;;;;17.76;77.11;99836.47;5061970;28;20727;-59
2023/08/04 05:49:47;;;;;;;3.47;2.53;;;;;;;17.68;77.90;99829.81;5070773;28;20374;-60
2023/08/04 05:52:17;;;;;;;7.43;2.90;;;;;;;17.71;77.04;99833.22;5061583;28;20314;-63
2023/08/04 05:54:50;;;;;;;4.60;2.73;;;;;;;17.62;77.85;99830.16;5071320;28;20283;-60
2023/08/04 05:57:21;;;;;;;6.40;4.17;;;;;;;17.59;75.81;99835.56;5062241;28;20305;-61
2023/08/04 05:59:51;;;;;;;4.17;2.57;;;;;;;17.67;75.73;99837.81;5059937;28;20361;-57
2023/08/04 06:02:21;;;;;;;5.10;2.73;;;;;;;17.78;76.02;99845.19;5072231;28;20824;-58
2023/08/04 06:04:52;;;;;;;5.50;2.53;;;;;;;17.97;76.75;99830.09;5061333;28;20278;-59
2023/08/04 06:07:23;;;;;;;3.90;2.87;;;;;;;18.14;74.67;99828.31;5073711;28;20957;-60
2023/08/04 06:09:55;;;;;;;5.30;2.40;;;;;;;18.16;71.72;99834.38;5059670;28;20297;-63
2023/08/04 06:12:26;;;;;;;5.17;2.90;;;;;;;18.09;74.42;99829.41;5072201;28;20384;-61
2023/08/04 06:14:58;;;;;;;5.30;2.97;;;;;;;17.94;74.29;99819.66;5060096;28;20382;-59
2023/08/04 06:17:29;;;;;;;17.17;12.50;;;;;;;17.87;73.98;99834.13;5071650;28;20305;-60
2023/08/04 06:19:59;;;;;;;4.53;2.97;;;;;;;17.76;74.65;99837.34;5060905;28;20298;-59
2023/08/04 06:22:30;;;;;;;12.90;8.93;;;;;;;17.64;76.54;99836.19;5072088;28;20625;-59
2023/08/04 06:25:02;;;;;;;16.73;9.30;;;;;;;17.73;77.97;99841.94;5061253;28;20312;-58
2023/08/04 06:27:32;;;;;;;2.90;2.10;;;;;;;17.75;77.23;99834.78;5070440;28;20340;-60
2023/08/04 06:30:03;;;;;;;5.63;2.70;;;;;;;17.75;77.90;99850.66;5061303;28;20324;-59
2023/08/04 06:32:34;;;;;;;4.67;3.90;;;;;;;17.79;76.70;99852.16;5070941;28;20808;-60
2023/08/04 06:35:05;;;;;;;6.93;5.67;;;;;;;17.76;76.36;99849.69;5062190;28;20297;-61
2023/08/04 06:37:36;;;;;;;4.30;1.77;;;;;;;17.80;76.25;99860.06;5070926;28;20563;-61
2023/08/04 06:40:09;;;;;;;6.60;4.60;;;;;;;17.86;77.79;99854.44;5060765;28;20380;-61
2023/08/04 06:42:40;;;;;;;4.50;2.27;;;;;;;17.67;76.69;99825.47;5072833;28;20709;-59
2023/08/04 06:45:11;;;;;;;3.50;1.90;;;;;;;17.59;73.10;99856.69;5061876;28;20277;-62
2023/08/04 06:47:41;;;;;;;2.43;1.63;;;;;;;17.33;75.71;99870.41;5071591;28;20725;-63
2023/08/04 06:50:12;;;;;;;3.30;1.93;;;;;;;17.15;76.98;99861.63;5059677;28;20339;-63
2023/08/04 06:52:42;;;;;;;4.10;1.97;;;;;;;17.04;75.56;99864.78;5069904;28;20343;-60
2023/08/04 06:55:15;;;;;;;6.00;1.50;;;;;;;16.94;78.36;99858.25;5059614;28;20297;-59
2023/08/04 06:57:52;;;;;;;3.23;2.00;;;;;;;16.93;79.90;99872.38;5054132;28;20323;-60
2023/08/04 07:00:23;;;;;;;3.07;1.70;;;;;;;16.91;79.49;99874.25;5060396;28;20412;-60
2023/08/04 07:02:53;;;;;;;2.87;1.57;;;;;;;16.90;79.40;99875.16;5061064;28;20378;-61
2023/08/04 07:05:24;;;;;;;3.73;1.53;;;;;;;16.83;78.86;99865.84;5070600;28;20286;-60
2023/08/04 07:07:55;;;;;;;6.33;3.33;;;;;;;16.86;78.24;99870.97;5061402;28;20321;-58
2023/08/04 07:10:28;;;;;;;8.03;4.43;;;;;;;16.86;78.11;99877.09;5072010;28;20988;-59
2023/08/04 07:12:58;;;;;;;4.40;2.90;;;;;;;16.86;78.78;99870.97;5060437;28;20350;-59
2023/08/04 07:15:29;;;;;;;6.77;3.70;;;;;;;16.75;76.71;99880.22;5070843;28;20290;-61
2023/08/04 07:17:59;;;;;;;5.90;3.60;;;;;;;16.78;79.15;99881.91;5059586;28;20286;-59
2023/08/04 07:20:31;;;;;;;8.10;4.03;;;;;;;16.80;80.76;99880.91;5069727;28;20601;-60
2023/08/04 07:23:02;;;;;;;9.97;4.73;;;;;;;16.75;81.01;99880.22;5060646;28;20366;-59
2023/08/04 07:25:34;;;;;;;3.33;1.47;;;;;;;16.78;80.75;99885.38;5070655;28;20850;-58
2023/08/04 07:28:05;;;;;;;4.13;1.90;;;;;;;16.75;80.45;99884.66;5059117;28;20274;-58
2023/08/04 07:30:37;;;;;;;2.50;1.60;;;;;;;16.64;80.48;99885.16;5070062;28;20352;-61
2023/08/04 07:33:08;;;;;;;9.87;5.67;;;;;;;16.67;80.73;99879.72;5058851;28;20992;-58
2023/08/04 07:35:39;;;;;;;22.07;12.03;;;;;;;16.66;76.28;99875.38;5069925;28;20270;-61
2023/08/04 07:38:09;;;;;;;18.60;9.93;;;;;;;16.59;79.40;99884.50;5059423;28;20287;-60
2023/08/04 07:40:42;;;;;;;3.53;2.60;;;;;;;16.48;79.75;99885.03;5070839;28;20365;-61
2023/08/04 07:43:13;;;;;;;2.60;1.50;;;;;;;16.44;80.83;99879.97;5060709;28;20291;-61
2023/08/04 07:45:44;;;;;;;3.27;1.70;;;;;;;16.46;79.99;99873.69;5069526;28;20760;-59
2023/08/04 07:48:15;;;;;;;2.43;1.13;;;;;;;16.40;80.12;99874.00;5059982;28;20280;-62
2023/08/04 07:50:48;;;;;;;2.10;1.50;;;;;;;16.04;80.56;99829.09;5070243;28;20939;-61
2023/08/04 07:53:19;;;;;;;1.73;1.10;;;;;;;16.29;80.37;99871.84;5059944;28;20745;-61
2023/08/04 07:55:58;;;;;;;1.83;1.20;;;;;;;16.30;80.51;99888.50;5063050;28;20423;-61
2023/08/04 07:58:29;;;;;;;1.70;1.25;;;;;;;16.34;81.29;99895.34;5072164;28;20745;-61
2023/08/04 08:01:00;;;;;;;3.40;1.43;;;;;;;16.25;82.46;99896.66;5060612;28;20104;-60
2023/08/04 08:03:30;;;;;;;5.27;1.57;;;;;;;16.22;81.62;99867.75;5070433;28;20275;-60
2023/08/04 08:06:01;;;;;;;2.00;1.23;;;;;;;16.49;81.38;99906.97;5061829;28;20596;-59
2023/08/04 08:08:32;;;;;;;2.17;1.30;;;;;;;16.38;81.44;99908.31;5074468;28;20281;-61
2023/08/04 08:11:09;;;;;;;2.50;1.07;;;;;;;16.34;83.14;99901.47;5063849;28;20293;-60
2023/08/04 08:13:39;;;;;;;1.53;1.30;;;;;;;15.76;82.59;99819.78;5074906;28;20277;-61
2023/08/04 08:16:11;;;;;;;4.40;1.30;;;;;;;15.89;82.41;99836.75;5063805;28;20334;-60
2023/08/04 08:18:46;;;;;;;3.53;1.40;;;;;;;16.29;82.52;99914.00;5071784;28;20285;-61
2023/08/04 08:21:17;;;;;;;2.77;1.17;;;;;;;16.20;82.71;99919.72;5061707;28;20338;-60
2023/08/04 08:23:48;;;;;;;1.83;1.10;;;;;;;16.13;83.18;99924.41;5072210;28;20286;-60
2023/08/04 08:26:20;;;;;;;2.70;1.10;;;;;;;16.03;82.87;99927.53;5063763;28;20274;-58
2023/08/04 08:28:51;;;;;;;1.90;1.10;;;;;;;16.01;82.84;99929.38;5063061;28;20374;-60
2023/08/04 08:31:22;;;;;;;3.17;1.17;;;;;;;15.94;82.88;99929.63;5074599;28;20269;-61
2023/08/04 08:33:52;;;;;;;4.03;1.60;;;;;;;15.96;83.88;99938.31;5062050;28;20286;-62
2023/08/04 08:36:23;;;;;;;1.20;1.10;;;;;;;16.06;83.82;99944.06;5073808;28;20805;-61
2023/08/04 08:38:53;;;;;;;2.90;1.40;;;;;;;16.16;82.88;99944.50;5064330;28;20377;-59
2023/08/04 08:41:26;;;;;;;1.77;1.27;;;;;;;16.29;83.43;99958.84;5073360;28;20740;-58
2023/08/04 08:43:57;;;;;;;1.87;1.43;;;;;;;16.30;82.87;99951.78;5063643;28;20292;-60
2023/08/04 08:46:28;;;;;;;2.57;1.30;;;;;;;16.24;83.23;99958.19;5073886;28;20601;-60
2023/08/04 08:49:03;;;;;;;2.97;1.23;;;;;;;16.34;82.97;99964.75;5062250;28;20769;-59
2023/08/04 08:51:37;;;;;;;3.10;1.27;;;;;;;16.28;82.62;99907.03;5073065;28;20372;-60
2023/08/04 08:54:08;;;;;;;4.90;1.30;;;;;;;16.85;83.05;99943.13;5062965;28;20286;-60
2023/08/04 08:56:40;;;;;;;5.43;1.40;;;;;;;16.84;80.74;99930.88;5072784;28;20278;-60
2023/08/04 08:59:11;;;;;;;2.17;1.30;;;;;;;16.70;79.28;99913.91;5061961;28;20270;-58
2023/08/04 09:01:42;;;;;;;1.73;0.90;;;;;;;16.45;79.63;99908.91;5073501;28;20821;-58
2023/08/04 09:04:22;;;;;;;1.20;0.97;;;;;;;16.23;80.70;99898.50;5062344;28;20411;-61
2023/08/04 09:06:59;;;;;;;2.40;1.40;;;;;;;16.06;81.47;99906.31;5062044;28;20297;-60
2023/08/04 09:09:37;;;;;;;2.97;0.97;;;;;;;15.98;82.07;99903.16;5073880;28;20271;-60
2023/08/04 09:12:11;;;;;;;2.90;1.63;;;;;;;15.97;82.99;99875.94;5062411;28;20315;-60
2023/08/04 09:14:55;;;;;;;2.70;1.50;;;;;;;16.19;82.60;99891.63;5073082;28;20297;-60
2023/08/04 09:17:36;;;;;;;3.50;1.20;;;;;;;15.68;83.35;99842.97;5061507;28;20313;-60
2023/08/04 09:20:09;;;;;;;4.53;1.10;;;;;;;15.88;84.12;99900.94;5044447;28;21478;-59
2023/08/04 09:22:44;;;;;;;2.40;1.43;;;;;;;15.79;84.60;99906.59;5069172;28;20847;-59
2023/08/04 09:25:18;;;;;;;2.97;1.40;;;;;;;15.82;85.19;99924.88;5061719;28;20731;-61
2023/08/04 09:27:50;;;;;;;2.77;1.37;;;;;;;15.82;85.61;99930.16;5071605;28;20737;-60
2023/08/04 09:30:25;;;;;;;5.07;1.37;;;;;;;15.85;86.51;99951.13;5062064;28;20759;-59
2023/08/04 09:33:00;;;;;;;3.10;1.30;;;;;;;15.66;88.27;99952.78;5062142;28;20680;-59
2023/08/04 09:35:50;;;;;;;2.77;1.80;;;;;;;15.60;90.33;99955.66;5072894;28;20276;-59
2023/08/04 09:38:23;;;;;;;1.73;1.23;;;;;;;15.39;91.85;99947.75;5061447;28;20278;-60
2023/08/04 09:41:06;;;;;;;3.50;1.53;;;;;;;15.17;92.61;99952.16;5063150;28;20339;-59
2023/08/04 09:43:46;;;;;;;4.13;1.30;;;;;;;14.95;93.78;99953.03;5071953;28;20294;-59
2023/08/04 09:46:18;;;;;;;3.13;1.60;;;;;;;14.92;94.74;99974.19;5061094;28;20641;-59
2023/08/04 09:48:50;;;;;;;3.17;1.73;;;;;;;14.81;95.21;99977.25;5067543;28;20281;-59
2023/08/04 09:51:22;;;;;;;3.73;1.70;;;;;;;14.79;95.90;99965.06;5067901;28;20289;-57
2023/08/04 09:53:56;;;;;;;6.23;1.50;;;;;;;14.63;96.19;99957.75;5055025;28;20766;-57
2023/08/04 09:56:28;;;;;;;4.93;1.40;;;;;;;14.57;96.78;99957.13;5065828;28;20270;-57
2023/08/04 09:59:02;;;;;;;3.57;1.40;;;;;;;14.53;97.72;99966.91;5056792;28;20343;-57
2023/08/04 10:01:34;;;;;;;4.73;2.10;;;;;;;14.54;98.49;99958.09;5065267;28;20302;-58
2023/08/04 10:04:10;;;;;;;7.03;1.60;;;;;;;14.55;98.20;99965.09;5060392;28;20321;-58
2023/08/04 10:06:41;;;;;;;2.70;1.17;;;;;;;14.53;98.58;99977.44;5070515;28;20283;-59
2023/08/04 10:09:13;;;;;;;2.53;2.00;;;;;;;14.49;98.94;99975.78;5061296;28;20322;-59
2023/08/04 10:11:45;;;;;;;2.07;1.50;;;;;;;14.18;99.84;99932.25;5071363;28;20384;-59
2023/08/04 10:14:22;;;;;;;3.93;1.93;;;;;;;14.48;100.00;99981.97;5059364;28;20627;-59
2023/08/04 10:16:57;;;;;;;4.33;1.70;;;;;;;14.50;100.00;99985.38;5061678;28;20339;-59
2023/08/04 10:19:30;;;;;;;4.53;1.70;;;;;;;14.16;100.00;99952.47;5070496;28;20282;-59
2023/08/04 10:22:07;;;;;;;4.40;1.60;;;;;;;14.50;100.00;99992.41;5061972;28;20290;-57
2023/08/04 10:24:42;;;;;;;2.70;1.70;;;;;;;14.47;100.00;99993.38;5072218;28;20375;-58
2023/08/04 10:27:16;;;;;;;7.50;2.10;;;;;;;14.47;100.00;99998.63;5059736;28;20282;-60
2023/08/04 10:30:03;;;;;;;4.63;1.87;;;;;;;14.46;100.00;100010.94;5072296;28;20301;-57
2023/08/04 10:32:44;;;;;;;5.93;1.67;;;;;;;14.37;100.00;100010.41;5069967;28;20274;-58
2023/08/04 10:35:19;;;;;;;5.10;1.87;;;;;;;14.30;100.00;100016.78;5061353;28;20744;-58
2023/08/04 10:37:54;;;;;;;4.93;1.97;;;;;;;14.20;100.00;100017.13;5060225;28;20293;-57
2023/08/04 10:40:30;;;;;;;4.70;1.70;;;;;;;14.17;100.00;100022.47;5071642;28;20451;-58
2023/08/04 10:43:05;;;;;;;4.57;1.77;;;;;;;14.12;100.00;100016.53;5059978;28;20763;-58
2023/08/04 10:46:02;;;;;;;3.33;1.50;;;;;;;14.10;100.00;100023.59;5070779;28;20830;-58
2023/08/04 10:48:39;;;;;;;5.07;1.50;;;;;;;13.86;100.00;99992.94;5070489;28;20373;-60
2023/08/04 10:51:13;;;;;;;4.50;2.10;;;;;;;13.91;100.00;100012.03;5059824;28;20277;-58
2023/08/04 10:53:45;;;;;;;3.90;1.87;;;;;;;13.98;100.00;100032.78;5070604;28;20662;-59
2023/08/04 10:56:23;;;;;;;5.27;1.83;;;;;;;13.90;100.00;100023.44;5060267;28;20338;-59
2023/08/04 10:58:55;;;;;;;3.87;1.77;;;;;;;13.84;100.00;100028.91;5062072;28;20285;-59
2023/08/04 11:01:31;;;;;;;3.17;1.83;;;;;;;13.30;100.00;99965.88;5071641;28;20296;-58
2023/08/04 11:04:03;;;;;;;5.53;2.13;;;;;;;13.69;100.00;100025.88;5060455;28;20294;-58
2023/08/04 11:06:35;;;;;;;4.83;1.80;;;;;;;13.71;100.00;100034.56;5071476;28;20282;-58
2023/08/04 11:09:07;;;;;;;5.43;1.47;;;;;;;13.81;100.00;100041.22;5061860;28;20315;-58
2023/08/04 11:11:42;;;;;;;5.47;2.80;;;;;;;13.89;100.00;100058.50;5072471;28;20277;-57
2023/08/04 11:14:13;;;;;;;8.87;4.17;;;;;;;14.03;100.00;100053.66;5059399;28;20609;-58
2023/08/04 11:16:50;;;;;;;5.03;2.70;;;;;;;14.04;100.00;100052.72;5070368;28;20287;-59
2023/08/04 11:19:22;;;;;;;2.03;1.60;;;;;;;13.89;100.00;100042.75;5059573;28;20317;-58
2023/08/04 11:21:54;;;;;;;5.93;1.70;;;;;;;13.73;100.00;100059.00;5058667;28;20290;-58
2023/08/04 11:24:26;;;;;;;7.20;3.20;;;;;;;13.67;100.00;100048.69;5070511;28;20314;-58
2023/08/04 11:26:57;;;;;;;3.70;1.60;;;;;;;13.66;100.00;100046.97;5060378;28;20297;-58
2023/08/04 11:29:29;;;;;;;3.20;1.53;;;;;;;13.57;100.00;100047.28;5070465;28;20274;-59
2023/08/04 11:32:03;;;;;;;3.77;1.90;;;;;;;13.33;100.00;100013.03;5060283;28;20273;-58
2023/08/04 11:34:35;;;;;;;10.83;6.43;;;;;;;13.59;100.00;100066.47;5069379;28;20289;-58
2023/08/04 11:37:07;;;;;;;7.70;3.20;;;;;;;13.60;100.00;100057.66;5058995;28;20296;-59
2023/08/04 11:39:42;;;;;;;4.60;1.87;;;;;;;13.50;100.00;100056.25;5069061;28;20270;-58
2023/08/04 11:42:14;;;;;;;5.03;2.30;;;;;;;13.46;100.00;100065.16;5059529;28;20277;-61
2023/08/04 11:44:48;;;;;;;10.37;2.60;;;;;;;13.19;100.00;100025.69;5070736;28;20278;-59
2023/08/04 11:47:26;;;;;;;9.20;3.67;;;;;;;13.47;100.00;100066.84;5059936;28;20319;-58
2023/08/04 11:50:02;;;;;;;9.33;3.20;;;;;;;13.47;100.00;100069.47;5059532;28;20312;-58
2023/08/04 11:52:37;;;;;;;6.93;2.93;;;;;;;13.43;100.00;100067.84;5070088;28;20296;-58